Time;durP1;ratioP1;P1;durP2;ratioP2;P2;SDS_P1;SDS_P2;PMS_P1;PMS_P2;Temp;Humidity;BMP_temperature;BMP_pressure;BME280_temperature;BME280_humidity;BME280_pressure;Samples;Min_cycle;Max_cycle;Signal;HPM_P1;HPM_P2
2023/06/15 00:00:06;;;;;;;3.45;3.15;;;;;;;20.63;49.87;96490.75;10350185;28;20761;-30
2023/06/15 00:05:12;;;;;;;3.92;3.55;;;;;;;20.79;49.20;96486.31;10342387;28;20035;-29
2023/06/15 00:10:12;;;;;;;3.75;3.45;;;;;;;20.78;49.19;96475.28;10335443;28;20033;-30
2023/06/15 00:15:13;;;;;;;8.20;4.03;;;;;;;20.68;50.23;96483.91;10334474;28;20042;-31
2023/06/15 00:20:14;;;;;;;4.37;3.63;;;;;;;20.63;50.86;96495.84;10343957;28;20038;-29
2023/06/15 00:25:14;;;;;;;4.13;3.45;;;;;;;20.60;51.18;96498.41;10348343;28;20034;-30
2023/06/15 00:30:15;;;;;;;4.72;3.58;;;;;;;20.57;51.02;96493.34;10334227;28;20118;-30
2023/06/15 00:35:15;;;;;;;4.13;3.00;;;;;;;20.56;51.21;96501.84;10354609;28;20030;-29
2023/06/15 00:40:15;;;;;;;3.67;3.33;;;;;;;20.55;51.11;96497.63;10341736;28;20115;-30
2023/06/15 00:45:16;;;;;;;5.93;3.73;;;;;;;20.56;50.77;96499.31;10339075;28;20045;-30
2023/06/15 00:50:19;;;;;;;5.13;3.45;;;;;;;20.61;49.06;96492.47;10349567;28;20304;-30
2023/06/15 00:55:20;;;;;;;3.53;3.13;;;;;;;20.77;48.64;96493.97;10359475;28;20033;-30
2023/06/15 01:00:21;;;;;;;3.47;3.17;;;;;;;20.75;50.01;96500.78;10336374;28;20030;-30
2023/06/15 01:05:25;;;;;;;3.67;2.55;;;;;;;20.67;50.69;96502.59;10345828;28;20034;-30
2023/06/15 01:10:30;;;;;;;2.65;2.45;;;;;;;20.64;50.89;96501.78;10348387;28;20062;-30
2023/06/15 01:15:32;;;;;;;3.17;2.88;;;;;;;20.63;50.62;96500.09;10338530;28;20038;-30
2023/06/15 01:20:39;;;;;;;2.75;2.55;;;;;;;20.62;50.74;96494.16;10350893;28;20509;-30
2023/06/15 01:25:45;;;;;;;3.22;2.22;;;;;;;20.61;50.91;96495.00;10339807;28;20718;-31
2023/06/15 01:30:56;;;;;;;3.00;2.80;;;;;;;20.61;50.92;96497.56;10343836;28;20034;-30
2023/06/15 01:35:56;;;;;;;4.57;2.90;;;;;;;20.61;50.91;96491.63;10332505;28;20480;-30
2023/06/15 01:40:59;;;;;;;4.43;3.05;;;;;;;20.68;48.59;96498.31;10339170;28;20574;-30
2023/06/15 01:46:01;;;;;;;5.65;3.38;;;;;;;20.78;47.61;96495.66;10348982;28;20044;-30
2023/06/15 01:51:02;;;;;;;3.92;3.53;;;;;;;20.76;49.20;96499.91;10337774;28;20081;-30
2023/06/15 01:56:03;;;;;;;3.58;2.70;;;;;;;20.66;50.26;96500.03;10328185;28;20471;-30
2023/06/15 02:01:03;;;;;;;2.70;2.50;;;;;;;20.63;50.43;96506.00;10336190;28;20053;-30
2023/06/15 02:06:03;;;;;;;3.07;2.30;;;;;;;20.62;50.68;96504.31;10336905;28;20034;-30
2023/06/15 02:11:04;;;;;;;2.90;2.60;;;;;;;20.62;50.22;96506.03;10340992;28;20085;-29
2023/06/15 02:16:07;;;;;;;3.35;3.05;;;;;;;20.58;50.45;96506.94;10328123;28;20039;-29
2023/06/15 02:21:07;;;;;;;4.28;2.95;;;;;;;20.58;50.92;96502.69;10328757;28;20031;-30
2023/06/15 02:26:07;;;;;;;2.37;2.17;;;;;;;20.56;50.70;96509.47;10353416;28;20410;-31
2023/06/15 02:31:08;;;;;;;4.03;3.55;;;;;;;20.59;48.86;96509.47;10342865;28;20433;-30
2023/06/15 02:36:09;;;;;;;4.40;2.80;;;;;;;20.71;46.70;96504.22;10327357;28;20038;-30
2023/06/15 02:41:09;;;;;;;4.35;3.30;;;;;;;20.73;46.68;96502.47;10340372;28;20567;-30
2023/06/15 02:46:09;;;;;;;5.50;3.17;;;;;;;20.66;49.22;96500.91;10334691;28;20034;-29
2023/06/15 02:51:10;;;;;;;3.53;2.70;;;;;;;20.59;49.69;96504.38;10328731;28;20053;-30
2023/06/15 02:56:11;;;;;;;3.17;2.88;;;;;;;20.58;50.07;96512.00;10325579;28;20050;-30
2023/06/15 03:01:12;;;;;;;4.68;2.58;;;;;;;20.57;49.93;96503.53;10335304;28;20030;-30
2023/06/15 03:06:34;;;;;;;3.17;2.88;;;;;;;20.55;49.95;96512.06;10347812;28;20045;-30
2023/06/15 03:11:36;;;;;;;3.83;2.22;;;;;;;20.54;49.94;96511.19;10336574;28;20041;-29
2023/06/15 03:16:41;;;;;;;4.43;2.65;;;;;;;20.55;50.06;96506.97;10329472;28;20033;-30
2023/06/15 03:21:46;;;;;;;3.92;3.45;;;;;;;20.58;47.99;96512.88;10345523;28;20042;-29
2023/06/15 03:26:47;;;;;;;3.75;3.17;;;;;;;20.71;47.08;96519.47;10317631;28;20029;-30
2023/06/15 03:31:50;;;;;;;5.10;3.28;;;;;;;20.73;46.94;96522.84;10343673;28;20497;-29
2023/06/15 03:36:51;;;;;;;5.15;3.17;;;;;;;20.32;45.23;96519.09;10337232;28;20030;-29
2023/06/15 03:41:52;;;;;;;5.85;3.55;;;;;;;20.16;48.17;96531.94;10330845;28;20262;-30
2023/06/15 03:46:53;;;;;;;3.53;2.47;;;;;;;18.60;50.70;96543.06;10330226;28;20485;-30
2023/06/15 03:51:53;;;;;;;4.67;3.20;;;;;;;18.25;50.18;96544.84;10328165;28;20105;-30
2023/06/15 03:56:54;;;;;;;6.65;3.05;;;;;;;18.18;50.03;96543.97;10344985;28;20802;-29
2023/06/15 04:01:55;;;;;;;6.32;3.65;;;;;;;18.10;49.76;96552.44;10350960;28;20024;-29
2023/06/15 04:06:57;;;;;;;4.05;3.40;;;;;;;18.00;49.82;96559.19;10339527;28;20034;-29
2023/06/15 04:11:59;;;;;;;4.70;3.92;;;;;;;17.92;49.89;96550.75;10336479;28;20061;-29
2023/06/15 04:17:02;;;;;;;5.28;3.65;;;;;;;17.90;49.72;96567.66;10332173;28;20065;-29
2023/06/15 04:22:05;;;;;;;4.63;3.72;;;;;;;17.94;49.83;96565.97;10350039;28;20037;-29
2023/06/15 04:27:08;;;;;;;5.93;3.92;;;;;;;17.75;50.48;96570.19;10341382;28;20038;-30
2023/06/15 04:32:08;;;;;;;4.05;3.65;;;;;;;17.69;50.38;96574.41;10314887;28;20108;-30
2023/06/15 04:37:11;;;;;;;4.78;3.60;;;;;;;17.75;50.53;96577.78;10347142;28;20099;-29
2023/06/15 04:42:12;;;;;;;5.00;3.55;;;;;;;17.82;49.99;96581.19;10333518;28;20498;-29
2023/06/15 04:47:13;;;;;;;4.60;3.70;;;;;;;17.89;49.65;96590.44;10330509;28;20049;-30
2023/06/15 04:52:14;;;;;;;4.93;3.60;;;;;;;17.80;50.02;96580.31;10334753;28;20489;-29
2023/06/15 04:57:16;;;;;;;4.10;3.25;;;;;;;17.75;50.17;96579.47;10338288;28;20034;-32
2023/06/15 05:02:17;;;;;;;6.43;3.95;;;;;;;18.44;49.81;96582.84;10320130;28;20030;-30
2023/06/15 05:07:18;;;;;;;5.88;3.60;;;;;;;19.17;48.28;96586.78;10336501;28;20393;-30
2023/06/15 05:12:22;;;;;;;4.45;3.45;;;;;;;19.43;48.22;96586.72;10337228;28;20038;-29
2023/06/15 05:17:23;;;;;;;7.10;4.18;;;;;;;19.53;47.98;96593.41;10342850;28;20037;-30
2023/06/15 05:22:24;;;;;;;5.53;4.20;;;;;;;19.64;48.83;96592.50;10329702;28;20034;-31
2023/06/15 05:27:25;;;;;;;4.93;3.63;;;;;;;19.66;48.00;96584.88;10355030;28;20037;-29
2023/06/15 05:32:27;;;;;;;4.28;3.55;;;;;;;19.68;47.89;96589.06;10337103;28;20037;-30
2023/06/15 05:37:27;;;;;;;5.38;3.50;;;;;;;19.74;48.12;96593.25;10339242;28;20034;-30
2023/06/15 05:42:28;;;;;;;3.88;3.58;;;;;;;19.76;48.02;96601.72;10356957;28;20038;-29
2023/06/15 05:47:29;;;;;;;5.18;3.25;;;;;;;19.78;48.50;96602.56;10331552;28;20034;-30
2023/06/15 05:52:30;;;;;;;5.97;3.47;;;;;;;19.81;48.37;96605.06;10343984;28;20230;-30
2023/06/15 05:57:30;;;;;;;6.53;3.83;;;;;;;19.83;48.53;96598.28;10344232;28;20041;-29
2023/06/15 06:02:31;;;;;;;3.70;3.30;;;;;;;20.00;47.99;96601.56;10329380;28;20301;-30
2023/06/15 06:07:31;;;;;;;4.57;3.55;;;;;;;20.10;47.92;96593.03;10318602;28;20037;-30
2023/06/15 06:12:32;;;;;;;3.63;3.20;;;;;;;20.02;48.17;96600.66;10340820;28;20400;-29
2023/06/15 06:17:33;;;;;;;5.38;3.58;;;;;;;19.97;48.10;96611.72;10350402;28;20297;-30
2023/06/15 06:22:34;;;;;;;3.63;3.33;;;;;;;19.92;48.65;96616.00;10338201;28;20026;-30
2023/06/15 06:27:35;;;;;;;3.40;3.10;;;;;;;19.93;48.77;96615.97;10319981;28;20655;-29
2023/06/15 06:32:35;;;;;;;4.18;3.00;;;;;;;19.93;48.90;96617.69;10337516;28;20030;-29
2023/06/15 06:37:35;;;;;;;4.00;3.03;;;;;;;19.91;49.00;96616.88;10337112;28;20041;-29
2023/06/15 06:42:36;;;;;;;4.13;3.10;;;;;;;19.93;48.85;96625.31;10339222;28;20053;-30
2023/06/15 06:47:36;;;;;;;4.60;3.40;;;;;;;19.92;48.86;96618.56;10347068;28;20386;-30
2023/06/15 06:52:36;;;;;;;3.53;3.23;;;;;;;19.94;49.00;96621.91;10336662;28;20308;-28
2023/06/15 06:57:37;;;;;;;5.13;3.77;;;;;;;20.14;48.91;96623.50;10344435;28;20093;-29
2023/06/15 07:02:37;;;;;;;3.63;3.33;;;;;;;20.17;48.75;96626.00;10359359;28;20026;-29
2023/06/15 07:07:38;;;;;;;3.30;3.00;;;;;;;20.07;48.93;96631.16;10344419;28;20291;-30
2023/06/15 07:12:39;;;;;;;3.47;3.10;;;;;;;20.08;48.95;96635.41;10349046;28;20308;-30
2023/06/15 07:17:40;;;;;;;4.50;2.90;;;;;;;20.06;49.17;96630.34;10362153;28;20410;-29
2023/06/15 07:22:41;;;;;;;7.70;3.05;;;;;;;20.15;50.20;96631.94;10339986;28;20049;-29
2023/06/15 07:27:42;;;;;;;6.40;3.50;;;;;;;20.09;49.45;96632.84;10336685;28;20050;-30
2023/06/15 07:32:42;;;;;;;4.28;3.05;;;;;;;20.02;49.52;96641.31;10329574;28;20043;-29
2023/06/15 07:37:43;;;;;;;4.18;3.10;;;;;;;20.02;49.47;96635.41;10329921;28;20030;-29
2023/06/15 07:42:44;;;;;;;3.17;2.80;;;;;;;20.01;49.50;96642.19;10340561;28;20120;-30
2023/06/15 07:47:45;;;;;;;3.42;3.08;;;;;;;20.14;49.38;96645.50;10352700;28;20425;-29
2023/06/15 07:52:45;;;;;;;4.28;3.40;;;;;;;20.28;49.38;96648.78;10356626;28;20038;-29
2023/06/15 07:57:46;;;;;;;3.23;2.93;;;;;;;20.18;49.23;96644.66;10326402;28;20521;-30
2023/06/15 08:02:46;;;;;;;3.93;3.07;;;;;;;20.11;49.45;96645.53;10327127;28;20026;-29
2023/06/15 08:07:47;;;;;;;3.33;2.90;;;;;;;20.07;49.62;96643.88;10342586;28;20785;-29
2023/06/15 08:12:47;;;;;;;5.40;2.57;;;;;;;20.07;49.55;96638.78;10344654;28;20076;-30
2023/06/15 08:17:47;;;;;;;3.30;2.83;;;;;;;20.07;49.56;96641.31;10339361;28;20085;-29
2023/06/15 08:22:48;;;;;;;3.30;2.87;;;;;;;20.01;49.84;96639.63;10334642;28;20372;-29
2023/06/15 08:27:48;;;;;;;3.13;2.80;;;;;;;20.02;49.82;96640.50;10334441;28;20038;-30
2023/06/15 08:32:48;;;;;;;3.07;2.73;;;;;;;19.99;49.72;96633.72;10340994;28;20445;-30
2023/06/15 08:37:49;;;;;;;4.37;3.27;;;;;;;20.11;49.88;96635.38;10336680;28;20464;-29
2023/06/15 08:42:50;;;;;;;3.38;2.80;;;;;;;20.30;49.74;96636.91;10358285;28;20096;-29
2023/06/15 08:47:53;;;;;;;3.80;3.33;;;;;;;20.39;49.61;96637.69;10333387;28;20038;-30
2023/06/15 08:52:54;;;;;;;5.03;3.05;;;;;;;20.30;49.76;96650.47;10359894;28;20560;-30
2023/06/15 08:57:55;;;;;;;3.22;2.88;;;;;;;20.19;49.77;96648.88;10353324;28;20121;-30
2023/06/15 09:02:59;;;;;;;5.33;3.20;;;;;;;20.20;49.92;96640.38;10346236;28;20116;-29
2023/06/15 09:08:00;;;;;;;4.35;3.30;;;;;;;20.20;50.07;96650.56;10352505;28;20113;-29
2023/06/15 09:13:00;;;;;;;5.28;3.40;;;;;;;20.19;50.15;96648.88;10356164;28;20035;-30
2023/06/15 09:18:02;;;;;;;33.72;6.68;;;;;;;20.17;50.70;96648.03;10341432;28;20038;-29
2023/06/15 09:23:04;;;;;;;15.63;4.70;;;;;;;20.16;50.37;96652.28;10339763;28;20042;-31
2023/06/15 09:28:06;;;;;;;16.40;3.53;;;;;;;20.17;50.55;96653.97;10347492;28;20533;-30
2023/06/15 09:33:13;;;;;;;27.48;3.40;;;;;;;20.30;50.55;96647.94;10349209;28;20175;-29
2023/06/15 09:38:14;;;;;;;9.75;3.25;;;;;;;20.44;50.51;96644.41;10348199;28;20036;-29
2023/06/15 09:43:16;;;;;;;7.70;3.77;;;;;;;20.43;50.67;96649.50;10349501;28;20038;-31
2023/06/15 09:48:16;;;;;;;12.35;3.35;;;;;;;20.33;50.20;96647.06;10353442;28;20049;-29
2023/06/15 09:53:18;;;;;;;11.57;3.33;;;;;;;20.27;50.50;96649.66;10350027;28;20046;-30
2023/06/15 09:58:18;;;;;;;9.38;3.47;;;;;;;20.23;51.06;96653.06;10334279;28;20034;-30
2023/06/15 10:03:19;;;;;;;5.30;3.33;;;;;;;20.20;50.70;96651.41;10341604;28;20419;-28
2023/06/15 10:08:26;;;;;;;6.55;3.20;;;;;;;20.20;50.65;96658.19;10340759;28;20294;-30
2023/06/15 10:13:33;;;;;;;8.65;3.28;;;;;;;20.19;51.65;96653.97;10332675;28;20046;-29
2023/06/15 10:18:36;;;;;;;7.93;2.67;;;;;;;20.21;50.89;96655.63;10338418;28;20034;-30
2023/06/15 10:23:38;;;;;;;7.18;3.13;;;;;;;20.21;50.98;96658.19;10353636;28;20046;-29
2023/06/15 10:28:47;;;;;;;4.85;3.17;;;;;;;20.43;51.16;96655.44;10344482;28;20069;-29
2023/06/15 10:33:59;;;;;;;8.93;3.38;;;;;;;20.53;51.42;96651.09;10337464;28;20486;-29
2023/06/15 10:39:15;;;;;;;8.43;3.47;;;;;;;20.42;50.67;96642.72;10362378;28;20054;-30
2023/06/15 10:44:16;;;;;;;10.10;4.35;;;;;;;20.33;50.96;96644.53;10338450;28;20034;-30
2023/06/15 10:49:16;;;;;;;8.52;3.55;;;;;;;20.29;51.00;96656.41;10339195;28;20039;-30
2023/06/15 10:54:21;;;;;;;15.90;6.43;;;;;;;20.21;51.04;96634.44;10335000;28;20093;-30
2023/06/15 10:59:41;;;;;;;10.38;6.68;;;;;;;20.27;51.10;96642.03;10335488;28;20285;-30
2023/06/15 11:04:51;;;;;;;14.18;4.90;;;;;;;20.25;52.00;96639.50;10334433;28;20410;-30
2023/06/15 11:09:52;;;;;;;11.38;5.28;;;;;;;20.26;51.54;96640.34;10357231;28;20397;-30
2023/06/15 11:14:55;;;;;;;14.25;5.10;;;;;;;20.27;51.30;96636.94;10344146;28;20041;-29
2023/06/15 11:19:57;;;;;;;9.15;4.82;;;;;;;20.43;51.59;96629.16;10345787;28;20766;-29
2023/06/15 11:24:57;;;;;;;9.98;4.57;;;;;;;20.54;52.01;96635.84;10332220;28;20041;-29
2023/06/15 11:29:58;;;;;;;11.45;4.82;;;;;;;20.50;51.41;96631.66;10339458;28;20034;-30
2023/06/15 11:35:03;;;;;;;5.78;4.30;;;;;;;20.45;51.46;96640.19;10331877;28;20117;-29
2023/06/15 11:40:06;;;;;;;12.35;5.68;;;;;;;20.37;51.47;96630.91;10347735;28;20093;-29
2023/06/15 11:45:12;;;;;;;13.15;5.32;;;;;;;20.33;51.26;96626.72;10359030;28;20041;-30
2023/06/15 11:50:17;;;;;;;;;;;;;;;20.32;51.59;96619.94;10349117;28;20061;-30
2023/06/15 11:55:17;;;;;;;11.43;4.90;;;;;;;20.27;51.31;96614.06;10343134;28;19914;-29
2023/06/15 12:00:18;;;;;;;12.20;4.83;;;;;;;20.32;51.97;96612.31;10350817;28;20478;-29
2023/06/15 12:05:19;;;;;;;10.65;5.07;;;;;;;20.29;51.45;96605.56;10337431;28;20407;-30
2023/06/15 12:10:19;;;;;;;8.98;5.85;;;;;;;20.42;51.93;96618.16;10351168;28;20426;-29
2023/06/15 12:15:21;;;;;;;11.13;5.88;;;;;;;20.57;52.29;96607.81;10342456;28;20034;-29
2023/06/15 12:20:26;;;;;;;20.40;5.13;;;;;;;20.50;52.19;96613.84;10334856;28;20041;-29
2023/06/15 12:25:44;;;;;;;16.23;6.00;;;;;;;20.48;52.30;96615.53;10356451;28;20042;-29
2023/06/15 12:30:47;;;;;;;43.88;8.38;;;;;;;20.38;51.92;96613.94;10333201;28;20305;-30
2023/06/15 12:35:50;;;;;;;16.65;6.38;;;;;;;20.32;51.77;96610.63;10340812;28;20113;-32
2023/06/15 12:40:52;;;;;;;15.90;5.85;;;;;;;20.32;51.97;96604.69;10356495;28;20029;-29
2023/06/15 12:45:57;;;;;;;13.05;5.40;;;;;;;20.31;51.82;96608.06;10341661;28;20052;-29
2023/06/15 12:50:58;;;;;;;17.58;5.30;;;;;;;20.31;52.00;96608.94;10356096;28;20034;-30
2023/06/15 12:56:00;;;;;;;13.75;6.45;;;;;;;20.31;52.14;96608.06;10331725;28;20030;-30
2023/06/15 13:01:00;;;;;;;12.93;5.78;;;;;;;20.29;51.98;96592.84;10356660;28;20449;-29
2023/06/15 13:06:01;;;;;;;9.52;4.53;;;;;;;20.53;51.62;96603.63;10348372;28;20096;-30
2023/06/15 13:11:02;;;;;;;9.77;5.25;;;;;;;20.61;51.57;96604.41;10348758;28;20150;-29
2023/06/15 13:16:02;;;;;;;12.18;4.70;;;;;;;20.56;51.48;96611.22;10364029;28;20033;-29
2023/06/15 13:21:03;;;;;;;7.72;4.20;;;;;;;20.48;51.64;96607.91;10347018;28;20164;-29
2023/06/15 13:26:03;;;;;;;9.18;5.03;;;;;;;20.42;51.77;96625.78;10349308;28;20034;-28
2023/06/15 13:31:04;;;;;;;9.53;4.63;;;;;;;20.42;51.66;96621.56;10339723;28;20043;-29
2023/06/15 13:36:04;;;;;;;10.20;4.50;;;;;;;20.36;51.86;96617.34;10343328;28;20141;-29
2023/06/15 13:41:05;;;;;;;8.93;4.50;;;;;;;20.36;52.04;96632.59;10336111;28;20082;-29
2023/06/15 13:46:05;;;;;;;11.80;4.37;;;;;;;20.36;52.22;96636.88;10339337;28;20030;-30
2023/06/15 13:51:06;;;;;;;7.17;4.10;;;;;;;20.32;52.01;96635.19;10332315;28;20038;-31
2023/06/15 13:56:06;;;;;;;5.95;4.53;;;;;;;20.46;52.54;96635.06;10341530;28;20037;-31
2023/06/15 14:01:07;;;;;;;8.90;4.07;;;;;;;20.62;52.70;96621.34;10341194;28;20034;-31
2023/06/15 14:06:07;;;;;;;6.43;4.20;;;;;;;20.58;52.06;96622.25;10359568;28;20426;-30
2023/06/15 14:11:08;;;;;;;7.10;4.85;;;;;;;20.48;52.10;96629.97;10337884;28;20053;-29
2023/06/15 14:16:08;;;;;;;7.20;4.50;;;;;;;20.40;51.87;96624.09;10334190;28;20451;-29
2023/06/15 14:21:08;;;;;;;5.07;3.80;;;;;;;20.39;52.05;96620.72;10338127;28;20034;-29
2023/06/15 14:26:09;;;;;;;4.63;4.03;;;;;;;20.33;52.01;96621.66;10345447;28;20034;-29
2023/06/15 14:31:09;;;;;;;4.60;3.43;;;;;;;20.34;52.29;96628.41;10347196;28;20038;-29
2023/06/15 14:36:10;;;;;;;6.47;3.90;;;;;;;20.36;52.23;96626.69;10359491;28;20043;-30
2023/06/15 14:41:10;;;;;;;5.45;3.70;;;;;;;20.32;52.09;96615.69;10341922;28;20034;-29
2023/06/15 14:46:10;;;;;;;6.33;4.03;;;;;;;20.38;52.42;96618.19;10353060;28;20104;-29
2023/06/15 14:51:11;;;;;;;3.30;3.00;;;;;;;20.59;52.35;96620.53;10343611;28;20045;-30
2023/06/15 14:56:11;;;;;;;4.07;3.67;;;;;;;20.66;52.03;96615.38;10337778;28;20297;-29
2023/06/15 15:01:12;;;;;;;4.70;3.55;;;;;;;20.57;51.93;96623.06;10357023;28;20277;-29
2023/06/15 15:06:12;;;;;;;5.05;4.03;;;;;;;20.47;51.97;96613.84;10323955;28;20101;-30
2023/06/15 15:11:13;;;;;;;7.10;3.58;;;;;;;20.45;51.94;96610.50;10332827;28;20121;-30
2023/06/15 15:16:13;;;;;;;4.15;3.17;;;;;;;20.45;52.02;96605.41;10348185;28;20058;-29
2023/06/15 15:21:14;;;;;;;4.27;3.30;;;;;;;20.42;52.07;96605.44;10342396;28;20041;-29
2023/06/15 15:26:14;;;;;;;3.83;3.22;;;;;;;20.46;52.12;96609.63;10339847;28;20291;-29
2023/06/15 15:31:15;;;;;;;4.97;3.27;;;;;;;20.42;52.03;96595.28;10345947;28;20723;-30
2023/06/15 15:36:16;;;;;;;3.67;3.03;;;;;;;20.44;52.00;96598.63;10335269;28;20406;-30
2023/06/15 15:41:16;;;;;;;4.85;3.28;;;;;;;20.54;52.47;96592.59;10340790;28;20116;-30
2023/06/15 15:46:17;;;;;;;4.47;3.63;;;;;;;20.71;52.45;96598.34;10332895;28;20072;-28
2023/06/15 15:51:18;;;;;;;3.92;3.08;;;;;;;20.59;51.92;96580.69;10330096;28;20426;-29
2023/06/15 15:56:18;;;;;;;4.45;3.40;;;;;;;20.54;51.91;96589.22;10337799;28;20065;-29
2023/06/15 16:01:19;;;;;;;5.55;3.40;;;;;;;20.56;52.27;96590.88;10355546;28;20132;-31
2023/06/15 16:06:21;;;;;;;5.15;3.08;;;;;;;20.52;52.37;96579.06;10353905;28;20034;-30
2023/06/15 16:11:22;;;;;;;5.45;3.22;;;;;;;20.51;52.18;96591.78;10365310;28;20149;-30
2023/06/15 16:16:22;;;;;;;7.78;2.63;;;;;;;20.49;52.00;96579.09;10333917;28;20084;-30
2023/06/15 16:21:24;;;;;;;5.17;3.30;;;;;;;20.47;52.19;96575.69;10352514;28;20022;-30
2023/06/15 16:26:24;;;;;;;5.43;2.70;;;;;;;20.47;52.36;96570.63;10349822;28;20125;-30
2023/06/15 16:31:27;;;;;;;4.87;3.30;;;;;;;20.58;53.12;96573.91;10345631;28;20046;-29
2023/06/15 16:36:27;;;;;;;7.55;3.35;;;;;;;20.73;53.25;96558.47;10337410;28;20022;-30
2023/06/15 16:41:28;;;;;;;3.13;2.83;;;;;;;20.72;52.94;96556.78;10342214;28;20034;-29
2023/06/15 16:46:28;;;;;;;3.08;2.60;;;;;;;20.59;52.21;96565.41;10341696;28;20034;-30
2023/06/15 16:51:29;;;;;;;4.80;3.40;;;;;;;20.53;52.31;96570.56;10361045;28;20038;-29
2023/06/15 16:56:29;;;;;;;5.23;3.00;;;;;;;20.52;52.86;96573.97;10341085;28;20044;-30
2023/06/15 17:01:29;;;;;;;4.05;2.85;;;;;;;20.50;52.63;96570.59;10345432;28;20084;-30
2023/06/15 17:06:30;;;;;;;3.90;2.30;;;;;;;20.50;52.88;96577.38;10343391;28;20030;-30
2023/06/15 17:11:30;;;;;;;3.17;2.67;;;;;;;20.50;52.77;96574.84;10347518;28;20030;-29
2023/06/15 17:16:30;;;;;;;8.67;3.30;;;;;;;20.52;53.63;96573.97;10332018;28;20039;-29
2023/06/15 17:21:31;;;;;;;9.17;3.27;;;;;;;20.47;52.87;96570.63;10346057;28;20100;-29
2023/06/15 17:26:31;;;;;;;4.50;2.97;;;;;;;20.68;54.23;96575.50;10361821;28;20026;-29
2023/06/15 17:31:32;;;;;;;2.83;2.63;;;;;;;20.77;53.63;96569.44;10348104;28;20058;-30
2023/06/15 17:36:33;;;;;;;6.30;3.53;;;;;;;20.69;53.15;96584.81;10347477;28;20041;-30
2023/06/15 17:41:33;;;;;;;3.65;3.05;;;;;;;20.59;52.82;96590.00;10342071;28;20041;-30
2023/06/15 17:46:35;;;;;;;3.13;2.40;;;;;;;20.54;52.91;96584.13;10342283;28;20089;-30
2023/06/15 17:51:35;;;;;;;3.95;2.97;;;;;;;20.52;53.40;96581.59;10338855;28;20650;-30
2023/06/15 17:56:37;;;;;;;4.57;2.97;;;;;;;20.51;52.99;96587.56;10345024;28;20041;-29
2023/06/15 18:01:37;;;;;;;4.03;2.78;;;;;;;20.51;53.19;96581.59;10332020;28;20501;-28
2023/06/15 18:06:37;;;;;;;7.70;3.10;;;;;;;20.47;53.11;96580.78;10344229;28;20043;-29
2023/06/15 18:11:38;;;;;;;2.70;2.50;;;;;;;20.51;53.16;96597.72;10356034;28;20417;-29
2023/06/15 18:16:38;;;;;;;5.97;3.03;;;;;;;20.63;54.70;96597.59;10344025;28;20120;-29
2023/06/15 18:21:38;;;;;;;7.13;3.20;;;;;;;20.81;55.01;96605.00;10347570;28;20277;-29
2023/06/15 18:26:42;;;;;;;4.30;2.47;;;;;;;20.75;53.51;96601.69;10355086;28;20120;-29
2023/06/15 18:31:44;;;;;;;5.00;2.72;;;;;;;20.64;53.18;96603.53;10339226;28;20038;-30
2023/06/15 18:36:44;;;;;;;4.18;2.58;;;;;;;20.58;53.25;96604.44;10345490;28;20137;-29
2023/06/15 18:41:44;;;;;;;4.10;2.67;;;;;;;20.56;53.07;96610.38;10353667;28;20027;-30
2023/06/15 18:46:45;;;;;;;3.38;3.08;;;;;;;20.55;53.41;96624.78;10345004;28;20414;-29
2023/06/15 18:51:45;;;;;;;2.87;2.40;;;;;;;20.52;53.39;96619.75;10328712;28;20035;-30
2023/06/15 18:56:45;;;;;;;3.83;2.30;;;;;;;20.52;53.40;96618.91;10335622;28;20037;-30
2023/06/15 19:01:46;;;;;;;3.07;2.23;;;;;;;20.51;53.41;96628.25;10338490;28;20295;-29
2023/06/15 19:06:46;;;;;;;4.07;2.60;;;;;;;20.55;55.10;96629.06;10340020;28;20091;-30
2023/06/15 19:11:51;;;;;;;5.00;2.95;;;;;;;20.77;54.90;96636.47;10343280;28;20039;-30
2023/06/15 19:16:52;;;;;;;4.30;2.80;;;;;;;20.81;54.57;96632.19;10334899;28;20034;-30
2023/06/15 19:21:52;;;;;;;4.27;2.40;;;;;;;20.69;53.63;96633.16;10336297;28;20035;-29
2023/06/15 19:26:53;;;;;;;3.53;3.00;;;;;;;20.60;53.21;96638.31;10334244;28;20045;-30
2023/06/15 19:31:53;;;;;;;3.10;2.22;;;;;;;20.57;53.62;96648.50;10354995;28;20299;-30
2023/06/15 19:36:55;;;;;;;2.80;2.00;;;;;;;20.53;53.51;96649.41;10343493;28;20166;-30
2023/06/15 19:41:56;;;;;;;2.75;2.20;;;;;;;20.45;53.41;96643.53;10351905;28;20109;-30
2023/06/15 19:46:57;;;;;;;4.40;2.70;;;;;;;20.46;53.37;96654.56;10343212;28;20114;-31
2023/06/15 19:51:59;;;;;;;4.85;2.40;;;;;;;20.50;53.40;96666.41;10342093;28;20410;-29
2023/06/15 19:57:00;;;;;;;4.28;2.00;;;;;;;20.49;53.22;96670.66;10336731;28;20048;-30
2023/06/15 20:02:00;;;;;;;3.00;2.45;;;;;;;20.64;53.68;96679.84;10379504;28;20040;-31
2023/06/15 20:07:01;;;;;;;3.90;2.47;;;;;;;20.80;54.04;96687.31;10378023;28;20046;-29
2023/06/15 20:12:01;;;;;;;3.58;2.70;;;;;;;20.77;53.26;96689.88;10371334;28;20300;-29
2023/06/15 20:17:01;;;;;;;3.07;2.43;;;;;;;20.63;53.13;96694.25;10381165;28;20042;-29
2023/06/15 20:22:06;;;;;;;2.37;2.00;;;;;;;20.56;52.91;96697.69;10382496;28;20038;-30
2023/06/15 20:27:06;;;;;;;3.20;2.25;;;;;;;20.52;52.79;96698.59;10385249;28;20464;-29
2023/06/15 20:32:07;;;;;;;2.67;2.37;;;;;;;20.51;53.18;96704.53;10392884;28;20037;-30
2023/06/15 20:37:07;;;;;;;2.13;1.92;;;;;;;20.50;53.21;96710.50;10368444;28;20037;-29
2023/06/15 20:42:08;;;;;;;3.97;2.10;;;;;;;20.50;53.04;96709.63;10341451;28;20038;-29
2023/06/15 20:47:08;;;;;;;3.07;2.10;;;;;;;20.48;53.08;96713.91;10350313;28;20041;-31
2023/06/15 20:52:08;;;;;;;7.23;3.60;;;;;;;20.50;53.53;96722.34;10355966;28;20040;-30
2023/06/15 20:57:10;;;;;;;5.35;2.85;;;;;;;20.72;52.24;96708.59;10339698;28;20033;-30
2023/06/15 21:02:10;;;;;;;2.95;2.45;;;;;;;20.81;52.32;96714.44;10349426;28;20378;-30
2023/06/15 21:07:10;;;;;;;2.60;2.40;;;;;;;20.66;52.33;96719.69;10354100;28;20034;-30
2023/06/15 21:12:11;;;;;;;2.80;1.70;;;;;;;20.59;52.26;96720.59;10353690;28;20128;-30
2023/06/15 21:17:11;;;;;;;2.37;2.17;;;;;;;20.52;52.35;96721.50;10355308;28;20128;-31
2023/06/15 21:22:11;;;;;;;2.47;2.10;;;;;;;20.50;52.57;96722.34;10366169;28;20459;-31
2023/06/15 21:27:12;;;;;;;2.07;1.93;;;;;;;20.49;52.60;96721.53;10354580;28;20030;-30
2023/06/15 21:32:12;;;;;;;4.60;2.70;;;;;;;20.49;52.81;96725.75;10343606;28;20037;-30
2023/06/15 21:37:13;;;;;;;2.63;1.90;;;;;;;20.47;52.88;96724.94;10359739;28;20042;-29
2023/06/15 21:42:18;;;;;;;4.35;2.33;;;;;;;20.47;52.87;96723.22;10375511;28;20558;-31
2023/06/15 21:47:19;;;;;;;2.53;2.33;;;;;;;20.57;52.15;96724.00;10342372;28;20071;-30
2023/06/15 21:52:19;;;;;;;4.00;3.17;;;;;;;20.75;51.26;96724.69;10331232;28;20038;-30
2023/06/15 21:57:20;;;;;;;2.80;2.53;;;;;;;20.71;51.48;96728.09;10338812;28;20524;-30
2023/06/15 22:02:20;;;;;;;3.07;2.27;;;;;;;20.57;51.98;96731.63;10329439;28;20038;-30
2023/06/15 22:07:20;;;;;;;1.90;1.70;;;;;;;20.52;52.42;96731.66;10336442;28;20331;-30
2023/06/15 22:12:21;;;;;;;3.17;2.17;;;;;;;20.49;52.56;96726.59;10337308;28;20485;-30
2023/06/15 22:17:21;;;;;;;3.27;2.43;;;;;;;20.47;52.21;96728.31;10346299;28;20129;-29
2023/06/15 22:22:24;;;;;;;2.00;1.90;;;;;;;20.46;52.31;96725.78;10348767;28;20044;-31
2023/06/15 22:27:25;;;;;;;2.25;1.83;;;;;;;20.45;52.61;96730.00;10346424;28;20045;-30
2023/06/15 22:32:25;;;;;;;2.80;2.33;;;;;;;20.44;52.34;96727.47;10351031;28;20418;-31
2023/06/15 22:37:25;;;;;;;2.87;2.60;;;;;;;20.42;52.32;96720.75;10332363;28;20025;-29
2023/06/15 22:42:26;;;;;;;4.23;2.93;;;;;;;20.65;49.71;96720.50;10351005;28;20045;-31
2023/06/15 22:47:28;;;;;;;4.37;3.40;;;;;;;20.73;49.60;96725.56;10337921;28;20161;-30
2023/06/15 22:52:29;;;;;;;3.10;2.80;;;;;;;20.63;50.82;96731.59;10342426;28;20040;-30
2023/06/15 22:57:29;;;;;;;2.58;2.38;;;;;;;20.52;51.49;96734.22;10350638;28;20116;-30
2023/06/15 23:02:29;;;;;;;2.50;2.30;;;;;;;20.48;51.70;96726.63;10338631;28;20045;-31
2023/06/15 23:07:30;;;;;;;2.47;2.17;;;;;;;20.46;51.56;96725.78;10330064;28;20738;-30
2023/06/15 23:12:32;;;;;;;2.50;2.30;;;;;;;20.44;51.83;96723.25;10329375;28;20100;-30
2023/06/15 23:17:32;;;;;;;2.22;1.88;;;;;;;20.44;51.31;96718.16;10346343;28;20030;-30